Time;durP1;ratioP1;P1;durP2;ratioP2;P2;SDS_P1;SDS_P2;PMS_P1;PMS_P2;Temp;Humidity;BMP_temperature;BMP_pressure;BME280_temperature;BME280_humidity;BME280_pressure;Samples;Min_cycle;Max_cycle;Signal;HPM_P1;HPM_P2
2024/01/07 00:00:18;;;;;;;1.50;1.10;;;14.60;44.40;;;;;;5092169;28;20301;-61
2024/01/07 00:02:45;;;;;;;1.85;1.33;;;14.60;44.40;;;;;;5092199;28;20281;-61
2024/01/07 00:05:13;;;;;;;3.47;1.50;;;14.60;44.40;;;;;;5091261;28;20268;-61
2024/01/07 00:07:40;;;;;;;2.30;1.20;;;14.60;44.40;;;;;;5092138;28;20277;-61
2024/01/07 00:10:08;;;;;;;1.67;1.25;;;14.70;44.50;;;;;;5092167;28;20265;-61
2024/01/07 00:12:35;;;;;;;1.80;1.20;;;14.60;44.40;;;;;;5091890;28;20205;-61
2024/01/07 00:15:02;;;;;;;1.75;1.23;;;14.60;44.40;;;;;;5092155;28;20193;-61
2024/01/07 00:17:29;;;;;;;3.15;1.58;;;14.60;44.30;;;;;;5092048;28;20190;-61
2024/01/07 00:19:56;;;;;;;1.83;1.20;;;14.60;44.40;;;;;;5090881;28;20728;-61
2024/01/07 00:22:24;;;;;;;2.30;1.30;;;14.60;44.30;;;;;;5092056;28;20297;-61
2024/01/07 00:24:51;;;;;;;1.85;1.00;;;14.70;44.40;;;;;;5092297;28;20305;-61
2024/01/07 00:27:18;;;;;;;2.50;1.10;;;14.70;44.40;;;;;;5091778;28;20278;-60
2024/01/07 00:29:45;;;;;;;1.83;1.25;;;14.60;44.40;;;;;;5091755;28;20531;-61
2024/01/07 00:32:12;;;;;;;1.63;1.20;;;14.60;44.30;;;;;;5091877;28;20643;-61
2024/01/07 00:34:39;;;;;;;3.08;1.40;;;14.60;44.30;;;;;;5091354;28;20647;-61
2024/01/07 00:37:06;;;;;;;1.95;1.27;;;14.60;44.30;;;;;;5091451;28;20200;-61
2024/01/07 00:39:34;;;;;;;3.17;1.30;;;14.60;44.30;;;;;;5091705;28;20763;-61
2024/01/07 00:42:01;;;;;;;3.92;1.30;;;14.60;44.30;;;;;;5091460;28;20669;-61
2024/01/07 00:44:27;;;;;;;2.25;1.40;;;14.60;45.00;;;;;;5091586;28;20224;-61
2024/01/07 00:46:54;;;;;;;3.25;1.63;;;14.60;44.30;;;;;;5091854;28;20277;-61
2024/01/07 00:49:21;;;;;;;3.70;1.48;;;14.60;44.30;;;;;;5093816;28;20316;-61
2024/01/07 00:51:48;;;;;;;2.25;1.30;;;14.60;44.30;;;;;;5095447;28;20277;-61
2024/01/07 00:54:16;;;;;;;1.50;1.15;;;14.60;44.30;;;;;;5095440;28;20263;-61
2024/01/07 00:56:44;;;;;;;2.28;1.17;;;14.60;44.30;;;;;;5095526;28;20281;-61
2024/01/07 00:59:11;;;;;;;2.45;1.65;;;14.60;44.30;;;;;;5094935;28;20210;-61
2024/01/07 01:01:38;;;;;;;1.77;1.15;;;14.60;44.20;;;;;;5095229;28;20263;-61
2024/01/07 01:04:05;;;;;;;2.25;1.45;;;14.60;44.20;;;;;;5094896;28;20301;-61
2024/01/07 01:06:31;;;;;;;4.55;1.52;;;14.60;44.30;;;;;;5094787;28;20715;-62
2024/01/07 01:08:58;;;;;;;1.20;1.10;;;14.60;44.20;;;;;;5094984;28;20691;-62
2024/01/07 01:11:25;;;;;;;2.80;1.42;;;14.60;44.20;;;;;;5095062;28;20287;-61
2024/01/07 01:13:53;;;;;;;2.00;1.25;;;14.60;44.20;;;;;;5094872;28;20216;-61
2024/01/07 01:16:20;;;;;;;1.58;1.20;;;14.60;44.20;;;;;;5095074;28;20197;-61
2024/01/07 01:18:47;;;;;;;2.97;1.30;;;14.60;44.20;;;;;;5094179;28;20620;-61
2024/01/07 01:21:14;;;;;;;2.80;1.40;;;14.60;44.20;;;;;;5094545;28;20650;-61
2024/01/07 01:23:41;;;;;;;3.03;1.40;;;14.60;44.20;;;;;;5094964;28;20318;-61
2024/01/07 01:26:08;;;;;;;1.90;1.33;;;14.60;44.20;;;;;;5094854;28;20277;-61
2024/01/07 01:28:35;;;;;;;3.60;1.63;;;14.60;44.10;;;;;;5094550;28;20247;-61
2024/01/07 01:31:03;;;;;;;2.83;1.85;;;14.60;44.20;;;;;;5094639;28;20214;-61
2024/01/07 01:33:30;;;;;;;1.88;1.20;;;14.60;44.20;;;;;;5094327;28;20301;-61
2024/01/07 01:35:57;;;;;;;2.38;1.40;;;14.60;44.20;;;;;;5094399;28;20272;-61
2024/01/07 01:38:23;;;;;;;2.65;1.40;;;14.60;44.20;;;;;;5094557;28;20300;-61
2024/01/07 01:40:53;;;;;;;2.25;1.48;;;14.60;44.20;;;;;;5094472;28;20262;-60
2024/01/07 01:43:24;;;;;;;1.70;1.33;;;14.60;44.20;;;;;;5094123;28;20591;-61
2024/01/07 01:45:51;;;;;;;1.95;1.35;;;14.60;44.20;;;;;;5094414;28;20281;-61
2024/01/07 01:48:20;;;;;;;3.63;1.50;;;14.50;44.10;;;;;;5093206;28;20316;-61
2024/01/07 01:50:47;;;;;;;1.50;1.40;;;14.50;44.10;;;;;;5093788;28;20285;-61
2024/01/07 01:53:14;;;;;;;2.22;1.40;;;14.50;44.00;;;;;;5094029;28;20217;-61
2024/01/07 01:55:42;;;;;;;2.40;1.48;;;14.60;44.00;;;;;;5094405;28;20218;-61
2024/01/07 01:58:10;;;;;;;2.50;1.40;;;14.60;44.00;;;;;;5093526;28;20245;-61
2024/01/07 02:00:37;;;;;;;1.60;1.25;;;14.50;43.90;;;;;;5093537;28;20277;-61
2024/01/07 02:03:04;;;;;;;3.08;1.30;;;14.50;43.90;;;;;;5093479;28;20320;-61
2024/01/07 02:05:33;;;;;;;1.45;1.20;;;14.50;43.90;;;;;;5093700;28;20277;-61
2024/01/07 02:08:00;;;;;;;1.58;1.20;;;14.50;43.90;;;;;;5093940;28;20277;-61
2024/01/07 02:10:28;;;;;;;2.30;1.35;;;14.50;43.90;;;;;;5093952;28;20277;-61
2024/01/07 02:12:58;;;;;;;2.35;1.10;;;14.50;43.90;;;;;;5093588;28;20194;-61
2024/01/07 02:15:25;;;;;;;3.22;1.50;;;14.50;43.90;;;;;;5093592;28;20664;-61
2024/01/07 02:17:51;;;;;;;2.03;1.13;;;14.50;43.90;;;;;;5093018;28;20273;-61
2024/01/07 02:20:18;;;;;;;1.90;1.30;;;14.50;43.90;;;;;;5093567;28;20191;-61
2024/01/07 02:22:47;;;;;;;2.25;1.55;;;14.50;43.80;;;;;;5093276;28;20214;-61
2024/01/07 02:25:15;;;;;;;1.60;1.50;;;14.50;43.80;;;;;;5093814;28;20621;-61
2024/01/07 02:27:42;;;;;;;3.28;1.63;;;14.50;43.80;;;;;;5093310;28;20273;-61
2024/01/07 02:30:09;;;;;;;2.63;1.33;;;14.50;43.70;;;;;;5093548;28;20273;-61
2024/01/07 02:32:37;;;;;;;1.42;1.27;;;14.50;43.70;;;;;;5092954;28;20268;-61
2024/01/07 02:35:05;;;;;;;2.60;1.13;;;14.50;43.70;;;;;;5093350;28;20221;-61
2024/01/07 02:37:32;;;;;;;2.65;1.40;;;14.50;43.70;;;;;;5093077;28;20285;-62
2024/01/07 02:39:59;;;;;;;2.42;1.38;;;14.50;43.70;;;;;;5093037;28;20551;-61
2024/01/07 02:42:27;;;;;;;2.50;1.40;;;14.50;43.70;;;;;;5092768;28;20762;-61
2024/01/07 02:44:54;;;;;;;1.85;1.20;;;14.50;43.70;;;;;;5093235;28;20602;-61
2024/01/07 02:47:21;;;;;;;2.13;1.23;;;14.50;43.70;;;;;;5092307;28;20739;-61
2024/01/07 02:49:47;;;;;;;3.38;1.67;;;14.50;43.70;;;;;;5092380;28;20234;-61
2024/01/07 02:52:14;;;;;;;2.75;1.33;;;14.50;43.70;;;;;;5093380;28;20277;-61
2024/01/07 02:54:41;;;;;;;2.28;1.30;;;14.50;43.80;;;;;;5093201;28;20309;-61
2024/01/07 02:57:08;;;;;;;2.92;1.50;;;14.50;43.60;;;;;;5092452;28;20556;-62
2024/01/07 02:59:36;;;;;;;1.40;1.30;;;14.50;43.70;;;;;;5092768;28;20317;-61
2024/01/07 03:02:03;;;;;;;2.55;1.27;;;14.50;44.40;;;;;;5091982;28;20779;-61
2024/01/07 03:04:30;;;;;;;2.28;1.38;;;14.50;43.70;;;;;;5092793;28;20306;-61
2024/01/07 03:06:56;;;;;;;2.55;1.42;;;14.50;43.70;;;;;;5092829;28;20186;-61
2024/01/07 03:09:23;;;;;;;3.10;1.30;;;14.50;43.70;;;;;;5092943;28;20312;-62
2024/01/07 03:11:50;;;;;;;2.40;1.30;;;14.50;43.60;;;;;;5092508;28;20278;-61
2024/01/07 03:14:20;;;;;;;1.65;1.25;;;14.50;43.70;;;;;;5092983;28;20253;-61
2024/01/07 03:16:48;;;;;;;2.85;1.40;;;14.50;43.70;;;;;;5091989;28;20638;-61
2024/01/07 03:19:15;;;;;;;2.85;1.48;;;14.50;43.70;;;;;;5092280;28;20305;-61
2024/01/07 03:21:42;;;;;;;1.38;1.17;;;14.50;43.70;;;;;;5092368;28;20695;-61
2024/01/07 03:24:08;;;;;;;1.92;1.23;;;14.50;43.60;;;;;;5092413;28;20762;-62
2024/01/07 03:26:36;;;;;;;1.98;1.35;;;14.50;43.70;;;;;;5092255;28;20277;-61
2024/01/07 03:29:03;;;;;;;2.03;1.45;;;14.50;44.40;;;;;;5092285;28;20300;-61
2024/01/07 03:31:30;;;;;;;3.97;1.40;;;14.50;43.80;;;;;;5092231;28;20281;-61
2024/01/07 03:33:58;;;;;;;2.58;1.40;;;14.50;43.80;;;;;;5091323;28;20766;-61
2024/01/07 03:36:25;;;;;;;1.95;1.08;;;14.50;43.80;;;;;;5092397;28;20671;-60
2024/01/07 03:38:53;;;;;;;2.97;1.38;;;14.50;43.80;;;;;;5092158;28;20722;-60
2024/01/07 03:41:21;;;;;;;3.85;1.40;;;14.50;43.80;;;;;;5092062;28;20217;-61
2024/01/07 03:43:49;;;;;;;2.53;1.52;;;14.50;43.80;;;;;;5092227;28;20703;-61
2024/01/07 03:46:16;;;;;;;1.77;1.42;;;14.50;43.80;;;;;;5092474;28;20186;-60
2024/01/07 03:48:44;;;;;;;2.72;1.30;;;14.50;43.80;;;;;;5091021;28;20662;-61
2024/01/07 03:51:12;;;;;;;4.13;1.35;;;14.50;43.80;;;;;;5092641;28;20273;-61
2024/01/07 03:53:39;;;;;;;2.78;1.45;;;14.50;44.40;;;;;;5091942;28;20247;-61
2024/01/07 03:56:06;;;;;;;2.10;1.27;;;14.50;43.80;;;;;;5092026;28;20274;-62
2024/01/07 03:58:34;;;;;;;2.53;1.33;;;14.50;43.80;;;;;;5092319;28;20217;-61
2024/01/07 04:01:01;;;;;;;2.03;1.20;;;14.50;44.40;;;;;;5092284;28;20190;-61
2024/01/07 04:03:28;;;;;;;1.55;1.20;;;14.50;43.80;;;;;;5091303;28;20244;-61
2024/01/07 04:05:55;;;;;;;3.03;1.58;;;14.40;43.70;;;;;;5092306;28;20658;-61
2024/01/07 04:08:23;;;;;;;2.88;1.13;;;14.50;43.70;;;;;;5091824;28;20218;-61
2024/01/07 04:10:50;;;;;;;1.40;1.20;;;14.40;43.60;;;;;;5091785;28;20682;-62
2024/01/07 04:13:17;;;;;;;3.45;1.40;;;14.50;43.80;;;;;;5092475;28;20233;-61
2024/01/07 04:15:44;;;;;;;3.40;1.30;;;14.50;43.70;;;;;;5092188;28;20274;-61
2024/01/07 04:18:11;;;;;;;2.25;1.35;;;14.50;43.80;;;;;;5091150;28;20285;-60
2024/01/07 04:20:38;;;;;;;2.50;1.35;;;14.50;43.70;;;;;;5092091;28;20214;-61
2024/01/07 04:23:05;;;;;;;1.27;1.17;;;14.40;43.60;;;;;;5093280;28;20304;-61
2024/01/07 04:25:33;;;;;;;2.45;1.23;;;14.50;44.40;;;;;;5095725;28;20269;-61
2024/01/07 04:28:00;;;;;;;2.25;1.48;;;14.40;43.70;;;;;;5095425;28;20277;-61
2024/01/07 04:30:27;;;;;;;2.22;1.30;;;14.40;44.30;;;;;;5095616;28;20663;-61
2024/01/07 04:32:54;;;;;;;2.10;1.33;;;14.40;43.60;;;;;;5094911;28;20263;-61
2024/01/07 04:35:21;;;;;;;2.45;1.60;;;14.50;43.80;;;;;;5095515;28;20277;-61
2024/01/07 04:37:48;;;;;;;2.85;1.95;;;14.40;43.70;;;;;;5095408;28;20747;-61
2024/01/07 04:40:15;;;;;;;2.30;1.48;;;14.50;43.80;;;;;;5095621;28;20310;-62
2024/01/07 04:42:43;;;;;;;3.17;1.35;;;14.40;43.60;;;;;;5095332;28;20216;-61
2024/01/07 04:45:10;;;;;;;2.17;1.45;;;14.40;43.70;;;;;;5095583;28;20783;-61
2024/01/07 04:47:37;;;;;;;2.65;1.50;;;14.40;43.70;;;;;;5094412;28;20277;-61
2024/01/07 04:50:05;;;;;;;1.48;1.38;;;14.40;43.70;;;;;;5095878;28;20217;-61
2024/01/07 04:52:32;;;;;;;4.15;1.27;;;14.40;43.80;;;;;;5095799;28;20293;-61
2024/01/07 04:54:59;;;;;;;3.15;1.50;;;14.40;43.80;;;;;;5095159;28;20298;-61
2024/01/07 04:57:25;;;;;;;1.98;1.20;;;14.40;43.70;;;;;;5095427;28;20221;-61
2024/01/07 04:59:54;;;;;;;2.78;1.40;;;14.40;43.70;;;;;;5095404;28;20296;-61
2024/01/07 05:02:21;;;;;;;3.83;1.60;;;14.40;43.70;;;;;;5094436;28;20220;-61
2024/01/07 05:04:47;;;;;;;2.80;1.63;;;14.40;43.70;;;;;;5095480;28;20324;-61
2024/01/07 05:07:14;;;;;;;2.25;1.52;;;14.40;43.60;;;;;;5094879;28;20743;-61
2024/01/07 05:09:41;;;;;;;2.78;1.35;;;14.40;43.60;;;;;;5095047;28;20218;-61
2024/01/07 05:12:08;;;;;;;2.80;1.40;;;14.40;43.60;;;;;;5094811;28;20277;-61
2024/01/07 05:14:35;;;;;;;1.98;1.60;;;14.40;43.50;;;;;;5095188;28;20239;-60
2024/01/07 05:17:03;;;;;;;2.20;1.35;;;14.40;43.50;;;;;;5094042;28;20190;-61
2024/01/07 05:19:30;;;;;;;2.63;1.40;;;14.40;43.50;;;;;;5095058;28;20226;-61
2024/01/07 05:21:57;;;;;;;1.83;1.50;;;14.40;43.60;;;;;;5094846;28;20629;-61
2024/01/07 05:24:25;;;;;;;2.15;1.48;;;14.40;43.50;;;;;;5094228;28;20778;-61
2024/01/07 05:26:52;;;;;;;4.07;1.60;;;14.40;43.50;;;;;;5094450;28;20182;-61
2024/01/07 05:29:19;;;;;;;2.03;1.70;;;14.40;43.50;;;;;;5094610;28;20783;-61
2024/01/07 05:31:46;;;;;;;4.65;1.58;;;14.40;43.70;;;;;;5093766;28;20599;-61
2024/01/07 05:34:14;;;;;;;2.47;1.30;;;14.40;43.40;;;;;;5093798;28;20304;-61
2024/01/07 05:36:41;;;;;;;4.22;1.70;;;14.40;43.50;;;;;;5094479;28;20189;-61
2024/01/07 05:39:07;;;;;;;1.77;1.30;;;14.40;43.50;;;;;;5094106;28;20648;-61
2024/01/07 05:41:37;;;;;;;2.42;1.58;;;14.40;43.40;;;;;;5094521;28;20189;-61
2024/01/07 05:44:04;;;;;;;2.88;1.30;;;14.40;43.50;;;;;;5094508;28;20304;-61
2024/01/07 05:46:31;;;;;;;2.28;1.33;;;14.40;43.50;;;;;;5093478;28;20277;-61
2024/01/07 05:48:58;;;;;;;3.53;1.70;;;14.40;43.40;;;;;;5094001;28;20244;-61
2024/01/07 05:51:26;;;;;;;1.73;1.20;;;14.30;43.40;;;;;;5094645;28;20225;-62
2024/01/07 05:53:53;;;;;;;2.50;1.30;;;14.40;43.50;;;;;;5093790;28;20305;-61
2024/01/07 05:56:20;;;;;;;2.63;1.70;;;14.30;43.40;;;;;;5094300;28;20326;-61
2024/01/07 05:58:47;;;;;;;2.75;1.73;;;14.40;43.50;;;;;;5093841;28;20665;-62
2024/01/07 06:01:19;;;;;;;2.30;1.70;;;14.40;43.50;;;;;;5093258;28;20193;-61
2024/01/07 06:03:46;;;;;;;6.55;1.33;;;14.40;43.50;;;;;;5093820;28;20599;-61
2024/01/07 06:06:14;;;;;;;3.88;1.98;;;14.40;43.60;;;;;;5094060;28;20273;-61
2024/01/07 06:08:42;;;;;;;4.30;1.38;;;14.30;43.80;;;;;;5093461;28;20218;-60
2024/01/07 06:11:10;;;;;;;2.72;1.17;;;14.30;43.50;;;;;;5093992;28;20274;-61
2024/01/07 06:13:37;;;;;;;2.67;1.58;;;14.40;43.60;;;;;;5093877;28;20218;-61
2024/01/07 06:16:04;;;;;;;2.08;1.23;;;14.30;43.50;;;;;;5092595;28;20247;-61
2024/01/07 06:18:31;;;;;;;2.42;1.52;;;14.30;43.60;;;;;;5093472;28;20244;-62
2024/01/07 06:20:58;;;;;;;2.13;1.42;;;14.30;43.60;;;;;;5093722;28;20280;-61
2024/01/07 06:23:25;;;;;;;2.47;1.40;;;14.30;43.70;;;;;;5093091;28;20777;-61
2024/01/07 06:25:53;;;;;;;1.70;1.42;;;14.30;43.60;;;;;;5093655;28;20281;-60
2024/01/07 06:28:20;;;;;;;3.30;1.30;;;14.30;43.60;;;;;;5093278;28;20731;-61
2024/01/07 06:30:47;;;;;;;1.83;1.13;;;14.30;43.60;;;;;;5092637;28;20194;-62
2024/01/07 06:33:14;;;;;;;2.85;1.33;;;14.30;44.30;;;;;;5093500;28;20288;-61
2024/01/07 06:35:41;;;;;;;2.60;1.52;;;14.30;43.60;;;;;;5093631;28;20190;-61
2024/01/07 06:38:08;;;;;;;3.00;1.30;;;14.30;43.60;;;;;;5093052;28;20186;-61
2024/01/07 06:40:35;;;;;;;3.33;1.60;;;14.30;43.70;;;;;;5093461;28;20276;-61
2024/01/07 06:43:03;;;;;;;2.10;1.40;;;14.30;43.60;;;;;;5093306;28;20217;-61
2024/01/07 06:45:30;;;;;;;1.90;1.30;;;14.30;43.60;;;;;;5091942;28;20676;-62
2024/01/07 06:47:57;;;;;;;3.00;1.40;;;14.30;43.60;;;;;;5092967;28;20318;-61
2024/01/07 06:50:24;;;;;;;2.83;1.33;;;14.30;43.60;;;;;;5093044;28;20214;-61
2024/01/07 06:52:51;;;;;;;2.92;1.33;;;14.30;43.60;;;;;;5092686;28;20562;-61
2024/01/07 06:55:17;;;;;;;2.67;1.40;;;14.30;43.50;;;;;;5093083;28;20214;-61
2024/01/07 06:57:44;;;;;;;5.10;1.60;;;14.30;43.50;;;;;;5092988;28;20289;-61
2024/01/07 07:00:15;;;;;;;2.63;1.30;;;14.30;43.50;;;;;;5092404;28;20304;-62
2024/01/07 07:02:41;;;;;;;2.63;1.42;;;14.30;43.50;;;;;;5092917;28;20300;-61
2024/01/07 07:05:10;;;;;;;3.85;1.15;;;14.30;43.60;;;;;;5093190;28;20321;-61
2024/01/07 07:07:37;;;;;;;1.70;1.40;;;14.30;43.50;;;;;;5092505;28;20563;-61
2024/01/07 07:10:04;;;;;;;3.25;1.27;;;14.30;43.50;;;;;;5092789;28;20687;-61
2024/01/07 07:12:31;;;;;;;2.67;1.42;;;14.30;43.50;;;;;;5092564;28;20647;-61
2024/01/07 07:14:58;;;;;;;2.60;1.40;;;14.30;43.50;;;;;;5092683;28;20304;-61
2024/01/07 07:17:26;;;;;;;2.58;1.33;;;14.30;43.60;;;;;;5092061;28;20269;-61
2024/01/07 07:19:53;;;;;;;3.38;1.50;;;14.30;43.50;;;;;;5092887;28;20305;-61
2024/01/07 07:22:20;;;;;;;2.60;1.50;;;14.30;43.50;;;;;;5092351;28;20711;-61
2024/01/07 07:24:47;;;;;;;3.35;2.00;;;14.30;43.60;;;;;;5092714;28;20306;-62
2024/01/07 07:27:13;;;;;;;4.00;1.30;;;14.30;43.60;;;;;;5092293;28;20281;-61
2024/01/07 07:29:40;;;;;;;5.32;1.63;;;14.30;43.60;;;;;;5092440;28;20217;-61
2024/01/07 07:32:08;;;;;;;3.25;1.50;;;14.30;43.60;;;;;;5091902;28;20266;-62
2024/01/07 07:34:36;;;;;;;2.40;1.52;;;14.30;43.60;;;;;;5092410;28;20737;-62
2024/01/07 07:37:03;;;;;;;1.45;1.17;;;14.30;43.60;;;;;;5091832;28;20724;-61
2024/01/07 07:39:30;;;;;;;3.20;1.60;;;14.30;43.60;;;;;;5092493;28;20300;-62
2024/01/07 07:41:57;;;;;;;2.55;1.55;;;14.30;43.50;;;;;;5092250;28;20551;-61
2024/01/07 07:44:24;;;;;;;5.40;1.45;;;14.30;43.50;;;;;;5091760;28;20321;-61
2024/01/07 07:46:51;;;;;;;4.32;1.40;;;14.30;43.60;;;;;;5091767;28;20277;-61
2024/01/07 07:49:18;;;;;;;2.75;1.50;;;14.30;43.50;;;;;;5092073;28;20233;-62
2024/01/07 07:51:46;;;;;;;2.35;1.23;;;14.30;43.50;;;;;;5091943;28;20193;-61
2024/01/07 07:54:13;;;;;;;2.72;1.20;;;14.30;43.50;;;;;;5092330;28;20300;-61
2024/01/07 07:56:39;;;;;;;4.68;1.70;;;14.30;43.40;;;;;;5092192;28;20614;-61
2024/01/07 07:59:08;;;;;;;1.80;1.52;;;14.30;43.40;;;;;;5094783;28;20284;-61
2024/01/07 08:01:36;;;;;;;3.03;1.55;;;14.30;43.40;;;;;;5095750;28;20239;-61
2024/01/07 08:04:05;;;;;;;2.28;1.50;;;14.20;43.30;;;;;;5096060;28;20749;-62
2024/01/07 08:06:31;;;;;;;3.10;1.33;;;14.30;43.40;;;;;;5096027;28;20190;-61
2024/01/07 08:09:00;;;;;;;5.45;1.40;;;14.20;43.30;;;;;;5096086;28;20220;-61
2024/01/07 08:11:27;;;;;;;4.60;1.50;;;14.30;43.40;;;;;;5096114;28;20724;-61
2024/01/07 08:13:53;;;;;;;3.25;1.52;;;14.20;43.30;;;;;;5095915;28;20221;-61
2024/01/07 08:16:20;;;;;;;2.25;1.38;;;14.20;43.30;;;;;;5095475;28;20269;-62
2024/01/07 08:18:47;;;;;;;3.13;1.30;;;14.20;43.30;;;;;;5096044;28;20296;-61
2024/01/07 08:21:14;;;;;;;3.28;1.55;;;14.30;43.30;;;;;;5095856;28;20621;-60
2024/01/07 08:23:42;;;;;;;1.80;1.23;;;14.20;43.30;;;;;;5095792;28;20225;-62
2024/01/07 08:26:10;;;;;;;2.40;1.10;;;14.20;43.20;;;;;;5096070;28;20186;-61
2024/01/07 08:28:37;;;;;;;3.97;1.30;;;14.20;43.20;;;;;;5095365;28;20739;-61
2024/01/07 08:31:04;;;;;;;2.85;1.33;;;14.30;43.30;;;;;;5094930;28;20277;-61
2024/01/07 08:33:33;;;;;;;2.63;1.20;;;14.20;43.10;;;;;;5095481;28;20630;-61
2024/01/07 08:35:59;;;;;;;1.70;1.00;;;14.20;43.10;;;;;;5095536;28;20186;-61
2024/01/07 08:38:26;;;;;;;3.30;1.60;;;14.20;43.10;;;;;;5095665;28;20273;-61
2024/01/07 08:40:53;;;;;;;2.55;1.25;;;14.20;43.10;;;;;;5095743;28;20269;-62
2024/01/07 08:43:21;;;;;;;1.70;1.20;;;14.20;43.10;;;;;;5095216;28;20218;-61
2024/01/07 08:45:48;;;;;;;2.15;1.23;;;14.20;43.10;;;;;;5094965;28;20269;-62
2024/01/07 08:48:15;;;;;;;3.05;1.33;;;14.20;43.10;;;;;;5095222;28;20309;-61
2024/01/07 08:50:42;;;;;;;2.70;1.23;;;14.20;43.10;;;;;;5095223;28;20640;-61
2024/01/07 08:53:09;;;;;;;2.63;1.58;;;14.20;43.00;;;;;;5095516;28;20720;-60
2024/01/07 08:55:35;;;;;;;2.25;1.20;;;14.20;43.00;;;;;;5095452;28;20301;-61
2024/01/07 08:58:02;;;;;;;3.70;1.45;;;14.20;42.90;;;;;;5094698;28;20711;-61
2024/01/07 09:00:31;;;;;;;2.40;1.33;;;14.20;42.90;;;;;;5094944;28;20217;-62
2024/01/07 09:02:58;;;;;;;4.03;1.30;;;14.20;43.00;;;;;;5095336;28;20186;-61
2024/01/07 09:05:25;;;;;;;2.95;1.25;;;14.20;42.90;;;;;;5094774;28;20582;-61
2024/01/07 09:07:52;;;;;;;3.67;1.30;;;14.20;43.00;;;;;;5095141;28;20541;-61
2024/01/07 09:10:20;;;;;;;2.95;1.58;;;14.20;42.90;;;;;;5094915;28;20217;-61
2024/01/07 09:12:47;;;;;;;3.00;1.40;;;14.20;42.90;;;;;;5094843;28;20194;-61
2024/01/07 09:15:14;;;;;;;2.30;1.10;;;14.10;42.80;;;;;;5094650;28;20218;-61
2024/01/07 09:17:42;;;;;;;3.25;1.50;;;14.20;43.60;;;;;;5094943;28;20209;-61
2024/01/07 09:20:11;;;;;;;5.43;1.48;;;14.20;42.90;;;;;;5094761;28;20218;-62
2024/01/07 09:22:37;;;;;;;2.45;1.25;;;14.20;42.90;;;;;;5094935;28;20190;-61
2024/01/07 09:25:05;;;;;;;2.88;1.35;;;14.10;42.90;;;;;;5094976;28;20244;-60
2024/01/07 09:27:33;;;;;;;1.65;1.20;;;14.10;42.80;;;;;;5094298;28;20715;-61
2024/01/07 09:30:01;;;;;;;2.83;1.23;;;14.10;42.70;;;;;;5093866;28;20659;-61
2024/01/07 09:32:27;;;;;;;2.45;1.20;;;14.10;42.70;;;;;;5094729;28;20208;-61
2024/01/07 09:34:56;;;;;;;2.47;1.27;;;14.10;42.60;;;;;;5094672;28;20312;-61
2024/01/07 09:37:22;;;;;;;2.10;1.02;;;14.10;42.60;;;;;;5094871;28;20277;-61
2024/01/07 09:39:50;;;;;;;1.90;1.20;;;14.10;42.60;;;;;;5094737;28;20297;-61
2024/01/07 09:42:18;;;;;;;3.03;1.25;;;14.10;42.60;;;;;;5094105;28;20670;-60
2024/01/07 09:44:45;;;;;;;3.33;1.38;;;14.10;42.60;;;;;;5093574;28;20667;-61
2024/01/07 09:47:13;;;;;;;1.40;1.30;;;14.10;43.20;;;;;;5094434;28;20601;-61
2024/01/07 09:49:40;;;;;;;2.65;1.17;;;14.20;42.60;;;;;;5094017;28;20645;-61
2024/01/07 09:52:09;;;;;;;1.45;1.10;;;14.10;42.50;;;;;;5094247;28;20658;-61
2024/01/07 09:54:38;;;;;;;2.45;1.38;;;14.10;42.40;;;;;;5093894;28;20214;-61
2024/01/07 09:57:07;;;;;;;2.17;1.35;;;14.10;42.40;;;;;;5093714;28;20197;-61
2024/01/07 09:59:36;;;;;;;2.40;1.23;;;14.10;42.40;;;;;;5093435;28;20214;-61
2024/01/07 10:02:04;;;;;;;2.58;1.05;;;14.10;42.50;;;;;;5094195;28;20186;-61
2024/01/07 10:04:31;;;;;;;1.67;1.00;;;14.10;42.40;;;;;;5093957;28;20341;-62
2024/01/07 10:06:58;;;;;;;2.33;1.20;;;14.10;42.90;;;;;;5093990;28;20186;-61
2024/01/07 10:09:30;;;;;;;3.15;1.30;;;14.10;42.30;;;;;;5094171;28;20222;-61
2024/01/07 10:11:57;;;;;;;2.63;1.23;;;14.10;42.20;;;;;;5093401;28;20277;-61
2024/01/07 10:14:24;;;;;;;3.40;1.30;;;14.10;42.20;;;;;;5093417;28;20301;-61
2024/01/07 10:16:51;;;;;;;2.42;1.33;;;14.10;42.20;;;;;;5093888;28;20216;-61
2024/01/07 10:19:22;;;;;;;2.35;1.38;;;14.10;42.10;;;;;;5093663;28;20316;-61
2024/01/07 10:22:00;;;;;;;2.03;1.10;;;14.10;42.10;;;;;;5093284;28;20229;-61
2024/01/07 10:24:36;;;;;;;2.95;1.23;;;14.10;42.00;;;;;;5093445;28;20248;-62
2024/01/07 10:27:04;;;;;;;3.85;1.33;;;14.10;42.00;;;;;;5093291;28;20276;-62
2024/01/07 10:29:31;;;;;;;2.38;1.10;;;14.10;42.00;;;;;;5092972;28;20408;-62
2024/01/07 10:31:59;;;;;;;1.77;1.30;;;14.10;42.00;;;;;;5093284;28;20207;-61
2024/01/07 10:34:27;;;;;;;2.75;1.33;;;14.10;41.90;;;;;;5092967;28;20656;-61
2024/01/07 10:36:57;;;;;;;2.53;1.23;;;14.10;42.50;;;;;;5093558;28;20277;-61
2024/01/07 10:39:25;;;;;;;1.75;1.20;;;14.10;41.90;;;;;;5093547;28;20253;-61
2024/01/07 10:41:57;;;;;;;1.77;1.15;;;14.10;41.80;;;;;;5092820;28;20763;-61
2024/01/07 10:44:24;;;;;;;5.78;1.05;;;14.10;41.70;;;;;;5092645;28;20229;-61
2024/01/07 10:46:53;;;;;;;5.50;1.15;;;14.10;41.80;;;;;;5093335;28;20281;-61
2024/01/07 10:49:21;;;;;;;1.77;1.08;;;14.10;41.80;;;;;;5092613;28;20324;-61
2024/01/07 10:51:57;;;;;;;2.97;1.30;;;14.10;41.70;;;;;;5093423;28;20205;-61
2024/01/07 10:54:29;;;;;;;2.17;1.17;;;14.00;41.70;;;;;;5092973;28;20591;-61
2024/01/07 10:57:00;;;;;;;2.40;1.02;;;14.10;41.70;;;;;;5092800;28;20288;-60
2024/01/07 10:59:29;;;;;;;3.38;1.15;;;14.00;41.60;;;;;;5092518;28;20300;-61
2024/01/07 11:01:56;;;;;;;1.50;1.30;;;14.10;41.60;;;;;;5092854;28;20731;-61
2024/01/07 11:04:30;;;;;;;2.10;1.30;;;14.10;41.50;;;;;;5092734;28;20308;-61
2024/01/07 11:07:04;;;;;;;1.58;1.30;;;14.10;41.50;;;;;;5092865;28;20264;-61
2024/01/07 11:09:37;;;;;;;2.45;1.35;;;14.10;41.40;;;;;;5093104;28;20304;-61
2024/01/07 11:12:07;;;;;;;2.15;1.20;;;14.10;41.40;;;;;;5092599;28;20273;-61
2024/01/07 11:14:39;;;;;;;2.47;1.10;;;14.10;41.40;;;;;;5092131;28;20305;-62
2024/01/07 11:17:07;;;;;;;1.35;1.10;;;14.10;41.30;;;;;;5092391;28;20236;-62
2024/01/07 11:19:34;;;;;;;1.40;1.10;;;14.10;41.40;;;;;;5056631;28;20696;-61
2024/01/07 11:22:27;;;;;;;1.17;1.10;;;14.00;41.20;;;;;;5092859;28;20267;-61
2024/01/07 11:24:55;;;;;;;2.97;1.63;;;14.00;41.20;;;;;;5092847;28;20229;-61
2024/01/07 11:27:24;;;;;;;2.92;1.20;;;14.00;41.20;;;;;;5092372;28;20247;-61
2024/01/07 11:29:56;;;;;;;3.22;1.42;;;14.10;41.40;;;;;;5092114;28;20304;-61
2024/01/07 11:32:25;;;;;;;1.95;1.23;;;14.00;41.20;;;;;;5091306;28;20208;-62
2024/01/07 11:34:53;;;;;;;2.55;1.38;;;14.00;41.20;;;;;;5092025;28;20676;-62
2024/01/07 11:37:19;;;;;;;2.22;1.10;;;14.10;41.30;;;;;;5092547;28;20274;-61
2024/01/07 11:39:47;;;;;;;3.35;1.30;;;14.00;41.20;;;;;;5092601;28;20312;-60
2024/01/07 11:42:14;;;;;;;1.98;1.10;;;14.10;41.30;;;;;;5092179;28;20186;-61
2024/01/07 11:44:49;;;;;;;2.92;1.08;;;14.00;41.20;;;;;;5091485;28;20703;-61
2024/01/07 11:47:16;;;;;;;3.05;1.30;;;14.10;41.30;;;;;;5092364;28;20190;-61
2024/01/07 11:49:43;;;;;;;1.63;0.95;;;14.00;41.20;;;;;;5091684;28;20670;-62
2024/01/07 11:52:11;;;;;;;4.18;1.38;;;14.10;41.30;;;;;;5092533;28;20194;-61
2024/01/07 11:54:38;;;;;;;3.17;1.40;;;14.10;41.30;;;;;;5092244;28;20221;-61
2024/01/07 11:57:05;;;;;;;3.40;1.48;;;14.10;41.30;;;;;;5091677;28;20190;-61
2024/01/07 11:59:33;;;;;;;1.73;1.27;;;14.00;41.20;;;;;;5091536;28;20763;-60
2024/01/07 12:02:04;;;;;;;4.30;1.35;;;14.00;41.20;;;;;;5092303;28;20194;-61
2024/01/07 12:04:31;;;;;;;2.47;1.20;;;14.00;41.30;;;;;;5091696;28;20229;-61
2024/01/07 12:06:58;;;;;;;2.33;1.35;;;14.00;41.20;;;;;;5092107;28;20272;-62
2024/01/07 12:09:25;;;;;;;1.45;1.10;;;14.10;41.30;;;;;;5092290;28;20292;-61
2024/01/07 12:11:52;;;;;;;1.83;1.20;;;14.00;41.20;;;;;;5091919;28;20294;-61
2024/01/07 12:14:19;;;;;;;1.77;1.00;;;14.00;41.20;;;;;;5091555;28;20300;-62
2024/01/07 12:16:46;;;;;;;2.13;1.27;;;14.00;41.20;;;;;;5092194;28;20201;-61
2024/01/07 12:19:14;;;;;;;1.27;1.10;;;14.00;41.20;;;;;;5091798;28;20300;-61
2024/01/07 12:21:41;;;;;;;3.53;1.10;;;14.10;41.30;;;;;;5092033;28;20193;-62
2024/01/07 12:24:08;;;;;;;3.42;1.27;;;14.10;41.30;;;;;;5092052;28;20222;-62
2024/01/07 12:26:37;;;;;;;5.15;1.27;;;14.00;41.20;;;;;;5091718;28;20186;-62
2024/01/07 12:29:04;;;;;;;2.30;1.00;;;14.00;41.90;;;;;;5091363;28;20267;-61
2024/01/07 12:31:32;;;;;;;2.67;1.20;;;14.00;41.30;;;;;;5092038;28;20204;-62
2024/01/07 12:33:59;;;;;;;4.32;1.33;;;14.00;41.20;;;;;;5091631;28;20218;-61
2024/01/07 12:36:30;;;;;;;3.65;1.20;;;14.00;41.20;;;;;;5091882;28;20269;-62
2024/01/07 12:38:58;;;;;;;2.38;1.10;;;14.00;41.30;;;;;;5091538;28;20731;-61
2024/01/07 12:41:25;;;;;;;1.58;1.10;;;14.00;41.30;;;;;;5091223;28;20186;-62
2024/01/07 12:43:52;;;;;;;2.50;1.00;;;14.00;41.30;;;;;;5091929;28;20211;-61
2024/01/07 12:46:19;;;;;;;2.08;1.15;;;14.00;41.20;;;;;;5095324;28;20692;-62
2024/01/07 12:48:46;;;;;;;2.90;1.27;;;14.10;41.30;;;;;;5094742;28;20783;-61